createdAt,value
2022-11-02T00:00:59.245Z,3.13
2022-11-02T00:03:28.656Z,3.35
2022-11-02T00:05:57.077Z,2.85
2022-11-02T00:08:25.434Z,2.75
2022-11-02T00:10:53.570Z,2.67
2022-11-02T00:13:21.810Z,2.38
2022-11-02T00:15:51.291Z,2.20
2022-11-02T00:18:19.630Z,2.45
2022-11-02T00:20:47.898Z,2.95
2022-11-02T00:23:16.954Z,2.70
2022-11-02T00:25:50.338Z,2.50
2022-11-02T00:28:18.612Z,3.47
2022-11-02T00:30:47.334Z,2.75
2022-11-02T00:33:16.871Z,2.45
2022-11-02T00:35:45.799Z,3.42
2022-11-02T00:38:14.180Z,2.45
2022-11-02T00:40:42.235Z,2.17
2022-11-02T00:43:10.437Z,2.20
2022-11-02T00:45:38.665Z,2.38
2022-11-02T00:48:07.540Z,2.40
2022-11-02T00:50:37.243Z,2.90
2022-11-02T00:53:05.571Z,2.95
2022-11-02T00:55:33.934Z,3.15
2022-11-02T00:58:04.905Z,2.15
2022-11-02T01:00:33.262Z,2.40
2022-11-02T01:03:01.835Z,2.28
2022-11-02T01:05:30.641Z,1.73
2022-11-02T01:08:00.239Z,2.03
2022-11-02T01:10:30.315Z,1.40
2022-11-02T01:12:58.636Z,2.65
2022-11-02T01:15:26.696Z,1.90
2022-11-02T01:17:54.728Z,3.38
2022-11-02T01:20:23.052Z,3.35
2022-11-02T01:22:51.055Z,2.70
2022-11-02T01:25:21.486Z,2.63
2022-11-02T01:27:49.786Z,2.25
2022-11-02T01:30:20.742Z,2.17
2022-11-02T01:32:48.782Z,2.42
2022-11-02T01:35:17.347Z,2.25
2022-11-02T01:37:45.561Z,2.22
2022-11-02T01:40:14.218Z,2.50
2022-11-02T01:42:43.826Z,2.20
2022-11-02T01:45:14.881Z,2.38
2022-11-02T01:47:47.105Z,1.90
2022-11-02T01:50:20.163Z,2.25
2022-11-02T01:53:02.597Z,2.22
2022-11-02T01:55:35.604Z,2.15
2022-11-02T01:58:11.347Z,1.80
2022-11-02T02:00:40.321Z,2.20
2022-11-02T02:03:10.962Z,2.20
2022-11-02T02:05:43.143Z,1.88
2022-11-02T02:08:17.420Z,2.55
2022-11-02T02:10:45.559Z,2.63
2022-11-02T02:13:15.789Z,1.80
2022-11-02T02:15:51.776Z,1.95
2022-11-02T02:18:27.427Z,2.25
2022-11-02T02:21:13.476Z,2.90
2022-11-02T02:24:16.693Z,2.17
2022-11-02T02:27:03.639Z,3.38
2022-11-02T02:29:42.777Z,2.33
2022-11-02T02:32:18.633Z,2.35
2022-11-02T02:34:52.510Z,3.10
2022-11-02T02:37:55.401Z,2.72
2022-11-02T02:40:31.805Z,2.50
2022-11-02T02:43:07.079Z,3.40
2022-11-02T02:45:41.320Z,2.95
2022-11-02T02:48:14.694Z,2.95
2022-11-02T02:50:48.773Z,2.15
2022-11-02T02:53:22.898Z,3.33
2022-11-02T02:55:51.986Z,2.78
2022-11-02T02:58:25.617Z,2.90
2022-11-02T03:00:57.535Z,2.00
2022-11-02T03:03:28.572Z,2.20
2022-11-02T03:06:05.172Z,2.17
2022-11-02T03:08:38.401Z,2.97
2022-11-02T03:11:14.762Z,2.78
2022-11-02T03:14:02.077Z,2.45
2022-11-02T03:16:44.972Z,2.70
2022-11-02T03:19:24.138Z,1.98
2022-11-02T03:21:59.526Z,2.70
2022-11-02T03:24:32.453Z,2.33
2022-11-02T03:27:10.712Z,2.30
2022-11-02T03:29:44.315Z,2.47
2022-11-02T03:32:21.969Z,3.20
2022-11-02T03:34:56.217Z,2.47
2022-11-02T03:37:29.016Z,2.30
2022-11-02T03:40:04.342Z,2.42
2022-11-02T03:42:34.624Z,2.40
2022-11-02T03:45:08.321Z,2.50
2022-11-02T03:47:40.141Z,2.30
2022-11-02T03:50:21.835Z,2.38
2022-11-02T03:52:58.307Z,2.40
2022-11-02T03:55:32.281Z,2.25
2022-11-02T03:58:00.880Z,2.30
2022-11-02T04:00:35.248Z,2.22
2022-11-02T04:03:13.328Z,2.60
2022-11-02T04:05:54.191Z,1.90
2022-11-02T04:08:35.411Z,2.60
2022-11-02T04:11:25.086Z,1.73
2022-11-02T04:14:12.617Z,2.40
2022-11-02T04:16:44.164Z,2.45
2022-11-02T04:19:27.687Z,2.20
2022-11-02T04:22:16.855Z,2.13
2022-11-02T04:25:08.024Z,2.00
2022-11-02T04:27:37.104Z,2.03
2022-11-02T04:30:05.835Z,2.53
2022-11-02T04:32:56.206Z,2.45
2022-11-02T04:35:26.974Z,1.73
2022-11-02T04:38:09.660Z,3.08
2022-11-02T04:40:39.935Z,2.67
2022-11-02T04:43:08.114Z,2.70
2022-11-02T04:45:37.181Z,2.10
2022-11-02T04:48:07.623Z,2.45
2022-11-02T04:50:38.137Z,2.53
2022-11-02T04:53:08.259Z,2.50
2022-11-02T04:55:37.198Z,2.00
2022-11-02T04:58:05.416Z,2.35
2022-11-02T05:00:33.917Z,2.30
2022-11-02T05:03:02.805Z,2.40
2022-11-02T05:05:31.838Z,2.55
2022-11-02T05:08:02.665Z,2.30
2022-11-02T05:10:31.273Z,1.63
2022-11-02T05:12:59.877Z,2.33
2022-11-02T05:15:32.254Z,2.10
2022-11-02T05:18:02.088Z,2.30
2022-11-02T05:20:31.701Z,1.90
2022-11-02T05:22:59.943Z,2.40
2022-11-02T05:25:29.530Z,2.10
2022-11-02T05:27:58.157Z,2.10
2022-11-02T05:30:27.159Z,2.30
2022-11-02T05:32:57.552Z,1.85
2022-11-02T05:35:25.763Z,2.83
2022-11-02T05:37:56.168Z,2.35
2022-11-02T05:40:24.456Z,1.88
2022-11-02T05:43:00.184Z,2.17
2022-11-02T05:45:29.342Z,2.58
2022-11-02T05:47:57.678Z,2.00
2022-11-02T05:50:25.614Z,2.40
2022-11-02T05:52:54.223Z,2.33
2022-11-02T05:55:22.381Z,2.38
2022-11-02T05:57:52.533Z,1.92
2022-11-02T06:00:23.162Z,2.00
2022-11-02T06:02:58.076Z,2.88
2022-11-02T06:05:26.703Z,2.50
2022-11-02T06:07:59.314Z,2.45
2022-11-02T06:10:28.284Z,2.13
2022-11-02T06:12:58.297Z,1.95
2022-11-02T06:15:28.046Z,2.28
2022-11-02T06:17:56.431Z,2.47
2022-11-02T06:20:25.146Z,2.20
2022-11-02T06:22:53.287Z,2.35
2022-11-02T06:25:21.366Z,1.90
2022-11-02T06:27:53.525Z,2.53
2022-11-02T06:30:22.268Z,3.15
2022-11-02T06:32:53.563Z,2.17
2022-11-02T06:35:23.316Z,2.50
2022-11-02T06:37:51.676Z,2.47
2022-11-02T06:40:22.607Z,2.25
2022-11-02T06:43:14.946Z,2.47
2022-11-02T06:45:44.580Z,3.13
2022-11-02T06:48:15.037Z,2.55
2022-11-02T06:50:43.185Z,2.45
2022-11-02T06:53:11.448Z,2.25
2022-11-02T06:55:39.762Z,1.90
2022-11-02T06:58:08.027Z,2.00
2022-11-02T07:00:36.167Z,2.42
2022-11-02T07:03:06.428Z,1.80
2022-11-02T07:05:38.331Z,2.30
2022-11-02T07:08:06.899Z,2.20
2022-11-02T07:10:36.600Z,2.58
2022-11-02T07:13:05.221Z,2.30
2022-11-02T07:15:33.493Z,1.50
2022-11-02T07:18:02.143Z,1.90
2022-11-02T07:20:30.662Z,1.60
2022-11-02T07:23:01.738Z,1.90
2022-11-02T07:25:32.093Z,1.88
2022-11-02T07:28:00.882Z,1.75
2022-11-02T07:30:29.859Z,2.42
2022-11-02T07:32:58.561Z,1.70
2022-11-02T07:35:26.647Z,2.30
2022-11-02T07:38:06.739Z,2.13
2022-11-02T07:40:36.458Z,2.45
2022-11-02T07:43:05.407Z,2.50
2022-11-02T07:45:40.769Z,2.70
2022-11-02T07:48:08.922Z,1.88
2022-11-02T07:50:37.093Z,2.00
2022-11-02T07:53:07.800Z,2.38
2022-11-02T07:55:41.749Z,2.55
2022-11-02T07:58:13.610Z,2.45
2022-11-02T08:01:20.245Z,2.30
2022-11-02T08:03:48.619Z,3.13
2022-11-02T08:06:16.910Z,2.60
2022-11-02T08:08:46.510Z,2.30
2022-11-02T08:11:14.674Z,1.90
2022-11-02T08:13:42.942Z,3.30
2022-11-02T08:16:11.003Z,2.13
2022-11-02T08:18:39.599Z,2.00
2022-11-02T08:21:07.767Z,1.90
2022-11-02T08:23:35.814Z,2.33
2022-11-02T08:26:05.438Z,2.38
2022-11-02T08:28:36.041Z,2.70
2022-11-02T08:31:04.344Z,2.13
2022-11-02T08:33:32.369Z,1.77
2022-11-02T08:36:04.935Z,2.00
2022-11-02T08:38:33.345Z,1.92
2022-11-02T08:41:01.991Z,2.05
2022-11-02T08:43:31.691Z,2.33
2022-11-02T08:46:14.401Z,2.88
2022-11-02T08:48:43.562Z,1.40
2022-11-02T08:51:11.643Z,2.45
2022-11-02T08:53:39.973Z,2.13
2022-11-02T08:56:08.647Z,2.10
2022-11-02T08:58:37.915Z,2.28
2022-11-02T09:01:06.056Z,1.70
2022-11-02T09:03:33.997Z,2.33
2022-11-02T09:06:03.457Z,1.70
2022-11-02T09:08:33.115Z,2.10
2022-11-02T09:11:03.688Z,2.08
2022-11-02T09:13:31.938Z,1.88
2022-11-02T09:16:02.672Z,2.30
2022-11-02T09:18:31.757Z,1.90
2022-11-02T09:21:02.964Z,1.75
2022-11-02T09:23:32.216Z,1.75
2022-11-02T09:26:00.651Z,1.75
2022-11-02T09:28:28.903Z,2.50
2022-11-02T09:30:57.248Z,2.15
2022-11-02T09:33:26.823Z,1.90
2022-11-02T09:35:55.178Z,1.73
2022-11-02T09:38:23.287Z,2.25
2022-11-02T09:41:01.940Z,2.58
2022-11-02T09:43:41.180Z,2.63
2022-11-02T09:46:12.452Z,2.25
2022-11-02T09:48:45.946Z,2.15
2022-11-02T09:51:22.781Z,2.53
2022-11-02T09:53:57.730Z,2.00
2022-11-02T09:56:25.991Z,1.45
2022-11-02T09:58:59.305Z,2.13
2022-11-02T10:01:40.763Z,2.08
2022-11-02T10:04:36.222Z,2.00
2022-11-02T10:07:09.584Z,2.10
2022-11-02T10:09:46.683Z,1.80
2022-11-02T10:12:17.024Z,2.20
2022-11-02T10:14:55.807Z,2.30
2022-11-02T10:17:27.314Z,2.55
2022-11-02T10:20:00.795Z,2.30
2022-11-02T10:22:33.854Z,2.20
2022-11-02T10:25:05.799Z,2.10
2022-11-02T10:27:38.997Z,2.25
2022-11-02T10:30:12.341Z,2.08
2022-11-02T10:35:40.673Z,2.30
2022-11-02T10:38:22.596Z,1.85
2022-11-02T10:41:05.316Z,1.63
2022-11-02T10:43:51.918Z,2.60
2022-11-02T10:47:00.361Z,2.00
2022-11-02T10:49:52.447Z,2.15
2022-11-02T10:52:22.373Z,2.22
2022-11-02T10:54:51.042Z,1.80
2022-11-02T10:57:23.822Z,1.83
2022-11-02T11:00:23.017Z,2.38
2022-11-02T11:03:07.317Z,3.65
2022-11-02T11:05:38.164Z,2.33
2022-11-02T11:08:08.346Z,2.20
2022-11-02T11:10:39.358Z,2.70
2022-11-02T11:15:56.537Z,2.67
2022-11-02T11:21:13.316Z,1.90
2022-11-02T11:23:42.986Z,2.08
2022-11-02T11:26:28.614Z,2.60
2022-11-02T11:28:57.867Z,2.17
2022-11-02T11:31:26.923Z,2.30
2022-11-02T11:34:02.225Z,2.67
2022-11-02T11:36:33.043Z,2.22
2022-11-02T11:39:06.069Z,1.67
2022-11-02T11:41:36.047Z,2.00
2022-11-02T11:44:04.468Z,1.75
2022-11-02T11:46:52.366Z,2.70
2022-11-02T11:49:41.621Z,1.70
2022-11-02T11:52:21.006Z,1.80
2022-11-02T11:54:58.942Z,2.67
2022-11-02T11:57:31.685Z,2.58
2022-11-02T12:00:05.099Z,1.60
2022-11-02T12:02:44.515Z,3.17
2022-11-02T12:05:15.788Z,2.55
2022-11-02T12:08:11.765Z,2.20
2022-11-02T12:11:17.755Z,1.38
2022-11-02T12:13:58.919Z,1.60
2022-11-02T12:16:53.056Z,2.10
2022-11-02T12:19:33.938Z,2.38
2022-11-02T12:22:10.652Z,1.85
2022-11-02T12:24:50.263Z,2.10
2022-11-02T12:27:32.915Z,1.73
2022-11-02T12:30:14.560Z,2.55
2022-11-02T12:32:59.844Z,1.95
2022-11-02T12:35:38.839Z,2.33
2022-11-02T12:38:20.571Z,2.28
2022-11-02T12:41:00.773Z,2.65
2022-11-02T12:43:46.741Z,3.35
2022-11-02T12:46:33.945Z,2.20
2022-11-02T12:49:22.711Z,2.03
2022-11-02T12:51:57.878Z,2.33
2022-11-02T12:54:34.000Z,1.90
2022-11-02T12:57:06.104Z,2.20
2022-11-02T12:59:36.002Z,2.85
2022-11-02T13:02:07.815Z,3.38
2022-11-02T13:04:47.743Z,2.10
2022-11-02T13:07:19.985Z,1.63
2022-11-02T13:09:55.241Z,1.95
2022-11-02T13:12:26.008Z,3.00
2022-11-02T13:14:58.265Z,2.17
2022-11-02T13:17:32.481Z,2.30
2022-11-02T13:20:06.303Z,2.80
2022-11-02T13:22:38.612Z,2.05
2022-11-02T13:25:17.464Z,1.80
2022-11-02T13:27:52.060Z,2.05
2022-11-02T13:30:22.191Z,2.83
2022-11-02T13:32:55.657Z,3.40
2022-11-02T13:35:30.149Z,2.15
2022-11-02T13:38:05.637Z,2.13
2022-11-02T13:40:39.883Z,2.70
2022-11-02T13:43:26.609Z,2.28
2022-11-02T13:46:16.608Z,1.80
2022-11-02T13:48:55.060Z,2.40
2022-11-02T13:51:34.006Z,1.55
2022-11-02T13:54:06.005Z,2.28
2022-11-02T13:56:37.742Z,2.35
2022-11-02T13:59:08.259Z,2.08
2022-11-02T14:01:42.212Z,2.58
2022-11-02T14:04:12.431Z,2.25
2022-11-02T14:06:55.048Z,3.83
2022-11-02T14:09:28.556Z,2.47
2022-11-02T14:12:26.975Z,2.47
2022-11-02T14:15:47.072Z,2.65
2022-11-02T14:18:30.880Z,1.95
2022-11-02T14:20:59.476Z,1.98
2022-11-02T14:23:40.931Z,2.05
2022-11-02T14:26:32.169Z,2.00
2022-11-02T14:29:00.540Z,3.80
2022-11-02T14:31:50.349Z,2.20
2022-11-02T14:34:50.830Z,2.65
2022-11-02T14:37:35.837Z,2.15
2022-11-02T14:40:30.267Z,2.05
2022-11-02T14:43:22.517Z,2.05
2022-11-02T14:46:08.446Z,2.65
2022-11-02T14:48:46.899Z,1.83
2022-11-02T14:51:22.109Z,1.92
2022-11-02T14:54:05.344Z,1.98
2022-11-02T14:56:53.709Z,2.00
2022-11-02T14:59:27.511Z,2.10
2022-11-02T15:01:59.004Z,2.78
2022-11-02T15:04:28.686Z,1.75
2022-11-02T15:07:00.662Z,3.47
2022-11-02T15:09:55.296Z,1.77
2022-11-02T15:12:48.305Z,2.78
2022-11-02T15:15:33.777Z,2.10
2022-11-02T15:18:22.652Z,1.15
2022-11-02T15:21:29.887Z,1.75
2022-11-02T15:24:20.858Z,1.88
2022-11-02T15:26:52.422Z,1.60
2022-11-02T15:29:37.956Z,3.40
2022-11-02T15:32:10.336Z,1.30
2022-11-02T15:34:44.168Z,1.67
2022-11-02T15:37:18.589Z,1.70
2022-11-02T15:39:51.908Z,1.52
2022-11-02T15:42:30.516Z,1.80
2022-11-02T15:45:48.831Z,1.80
2022-11-02T15:48:32.342Z,2.20
2022-11-02T15:51:11.315Z,1.48
2022-11-02T15:54:07.474Z,1.98
2022-11-02T15:56:50.875Z,1.98
2022-11-02T15:59:37.725Z,1.60
2022-11-02T16:02:20.986Z,2.33
2022-11-02T16:04:51.525Z,2.30
2022-11-02T16:07:20.666Z,2.13
2022-11-02T16:09:49.124Z,3.83
2022-11-02T16:12:20.620Z,2.75
2022-11-02T16:14:55.980Z,1.75
2022-11-02T16:17:36.248Z,1.90
2022-11-02T16:20:15.737Z,2.30
2022-11-02T16:22:48.852Z,1.70
2022-11-02T16:25:22.886Z,2.60
2022-11-02T16:27:53.002Z,4.25
2022-11-02T16:30:22.451Z,5.10
2022-11-02T16:33:00.495Z,6.78
2022-11-02T16:35:29.107Z,2.47
2022-11-02T16:37:57.497Z,2.33
2022-11-02T16:40:25.811Z,2.20
2022-11-02T16:42:58.945Z,2.65
2022-11-02T16:45:43.280Z,2.03
2022-11-02T16:48:21.431Z,3.90
2022-11-02T16:51:05.811Z,2.60
2022-11-02T16:53:43.572Z,2.30
2022-11-02T16:56:27.389Z,2.60
2022-11-02T16:59:01.256Z,2.95
2022-11-02T17:01:37.200Z,3.20
2022-11-02T17:04:16.315Z,3.35
2022-11-02T17:06:44.677Z,2.20
2022-11-02T17:09:23.657Z,2.20
2022-11-02T17:11:53.111Z,2.50
2022-11-02T17:14:23.934Z,2.55
2022-11-02T17:17:00.434Z,2.58
2022-11-02T17:19:55.131Z,2.15
2022-11-02T17:22:27.952Z,2.53
2022-11-02T17:25:11.297Z,1.90
2022-11-02T17:27:42.382Z,1.75
2022-11-02T17:30:42.812Z,2.55
2022-11-02T17:33:18.058Z,1.75
2022-11-02T17:35:47.990Z,2.67
2022-11-02T17:38:17.571Z,2.10
2022-11-02T17:40:45.664Z,2.40
2022-11-02T17:43:12.680Z,2.58
2022-11-02T17:45:42.134Z,2.85
2022-11-02T17:48:11.498Z,2.53
2022-11-02T17:50:41.444Z,2.20
2022-11-02T17:53:12.832Z,2.90
2022-11-02T17:55:41.392Z,2.22
2022-11-02T17:58:09.636Z,2.75
2022-11-02T18:00:38.297Z,4.90
2022-11-02T18:03:15.030Z,3.65
2022-11-02T18:05:50.957Z,3.90
2022-11-02T18:08:20.490Z,4.03
2022-11-02T18:10:49.610Z,4.63
2022-11-02T18:13:20.203Z,4.10
2022-11-02T18:15:48.729Z,4.22
2022-11-02T18:18:18.258Z,4.55
2022-11-02T18:20:46.598Z,5.07
2022-11-02T18:23:16.666Z,4.10
2022-11-02T18:25:44.847Z,5.35
2022-11-02T18:28:13.917Z,5.10
2022-11-02T18:30:44.196Z,4.72
2022-11-02T18:33:14.149Z,3.22
2022-11-02T18:35:44.250Z,2.90
2022-11-02T18:38:12.828Z,2.97
2022-11-02T18:40:41.353Z,5.40
2022-11-02T18:43:09.918Z,6.35
2022-11-02T18:45:38.222Z,6.50
2022-11-02T18:48:07.149Z,7.55
2022-11-02T18:50:35.500Z,6.18
2022-11-02T18:53:05.373Z,4.97
2022-11-02T18:55:33.512Z,5.68
2022-11-02T18:58:01.628Z,6.30
2022-11-02T19:00:30.316Z,6.95
2022-11-02T19:02:58.512Z,6.43
2022-11-02T19:05:44.195Z,4.70
2022-11-02T19:08:30.820Z,5.97
2022-11-02T19:11:04.963Z,5.38
2022-11-02T19:13:33.008Z,4.20
2022-11-02T19:16:01.061Z,4.82
2022-11-02T19:18:29.226Z,3.85
2022-11-02T19:20:57.300Z,4.38
2022-11-02T19:23:26.759Z,5.28
2022-11-02T19:25:54.919Z,5.47
2022-11-02T19:28:23.081Z,4.13
2022-11-02T19:30:51.079Z,3.60
2022-11-02T19:33:19.375Z,2.78
2022-11-02T19:35:56.120Z,3.03
2022-11-02T19:38:24.566Z,3.38
2022-11-02T19:41:11.128Z,3.55
2022-11-02T19:43:40.035Z,2.90
2022-11-02T19:46:09.763Z,3.30
2022-11-02T19:48:37.909Z,3.50
2022-11-02T19:51:07.915Z,2.80
2022-11-02T19:53:36.014Z,2.90
2022-11-02T19:56:05.328Z,2.58
2022-11-02T19:58:34.810Z,3.17
2022-11-02T20:01:06.842Z,3.50
2022-11-02T20:03:35.242Z,3.50
2022-11-02T20:06:05.177Z,2.90
2022-11-02T20:08:33.704Z,2.78
2022-11-02T20:11:06.531Z,2.58
2022-11-02T20:13:38.186Z,2.30
2022-11-02T20:16:07.817Z,3.10
2022-11-02T20:18:36.781Z,3.10
2022-11-02T20:21:07.375Z,3.05
2022-11-02T20:23:35.917Z,3.30
2022-11-02T20:26:05.575Z,3.15
2022-11-02T20:28:39.620Z,2.42
2022-11-02T20:31:09.427Z,3.60
2022-11-02T20:34:03.221Z,4.25
2022-11-02T20:36:33.195Z,3.15
2022-11-02T20:39:03.403Z,4.22
2022-11-02T20:41:55.785Z,3.67
2022-11-02T20:44:25.370Z,3.15
2022-11-02T20:46:53.861Z,4.40
2022-11-02T20:49:44.245Z,4.50
2022-11-02T20:52:10.938Z,5.30
2022-11-02T20:54:39.092Z,4.60
2022-11-02T20:57:07.604Z,4.18
2022-11-02T20:59:37.188Z,5.05
2022-11-02T21:02:05.380Z,3.85
2022-11-02T21:04:33.617Z,3.83
2022-11-02T21:07:01.749Z,4.18
2022-11-02T21:09:30.691Z,5.80
2022-11-02T21:12:17.484Z,3.95
2022-11-02T21:14:46.969Z,4.53
2022-11-02T21:17:15.557Z,4.00
2022-11-02T21:19:43.820Z,3.70
2022-11-02T21:22:12.929Z,4.05
2022-11-02T21:24:41.221Z,3.38
2022-11-02T21:27:15.708Z,4.15
2022-11-02T21:29:49.039Z,3.55
2022-11-02T21:32:17.810Z,4.03
2022-11-02T21:34:46.026Z,4.63
2022-11-02T21:37:14.524Z,3.13
2022-11-02T21:39:43.801Z,3.55
2022-11-02T21:42:11.974Z,3.95
2022-11-02T21:44:40.183Z,3.45
2022-11-02T21:47:13.761Z,3.50
2022-11-02T21:49:41.945Z,2.85
2022-11-02T21:52:10.288Z,3.65
2022-11-02T21:54:38.571Z,3.67
2022-11-02T21:57:06.905Z,3.35
2022-11-02T21:59:35.067Z,3.63
2022-11-02T22:02:03.286Z,3.30
2022-11-02T22:04:32.901Z,3.78
2022-11-02T22:07:02.065Z,3.35
2022-11-02T22:09:30.243Z,2.92
2022-11-02T22:12:15.966Z,4.00
2022-11-02T22:14:45.233Z,3.58
2022-11-02T22:17:43.341Z,3.58
2022-11-02T22:20:04.266Z,3.25
2022-11-02T22:22:32.812Z,4.20
2022-11-02T22:25:00.920Z,3.95
2022-11-02T22:27:28.959Z,3.75
2022-11-02T22:29:57.240Z,4.00
2022-11-02T22:32:25.281Z,4.00
2022-11-02T22:34:53.480Z,3.10
2022-11-02T22:37:40.749Z,3.42
2022-11-02T22:40:09.838Z,3.53
2022-11-02T22:42:41.413Z,3.67
2022-11-02T22:45:11.988Z,3.90
2022-11-02T22:47:40.135Z,3.70
2022-11-02T22:50:09.057Z,3.97
2022-11-02T22:52:45.876Z,3.33
2022-11-02T22:55:14.128Z,3.55
2022-11-02T22:57:42.453Z,3.30
2022-11-02T23:00:12.161Z,4.53
2022-11-02T23:02:40.318Z,4.10
2022-11-02T23:05:08.995Z,4.63
2022-11-02T23:07:37.050Z,3.95
2022-11-02T23:10:27.340Z,4.15
2022-11-02T23:12:54.698Z,4.85
2022-11-02T23:15:22.771Z,3.53
2022-11-02T23:17:50.775Z,4.03
2022-11-02T23:20:17.923Z,3.95
2022-11-02T23:23:03.875Z,4.47
2022-11-02T23:25:33.599Z,3.97
2022-11-02T23:28:19.163Z,5.00
2022-11-02T23:31:04.936Z,3.95
2022-11-02T23:33:36.143Z,3.88
2022-11-02T23:36:13.742Z,3.30
2022-11-02T23:39:00.902Z,4.00
2022-11-02T23:41:32.251Z,3.25
2022-11-02T23:44:12.784Z,4.68
2022-11-02T23:46:42.031Z,4.15
2022-11-02T23:49:11.672Z,4.57
2022-11-02T23:51:57.287Z,4.22
2022-11-02T23:54:42.697Z,4.90
2022-11-02T23:57:12.658Z,4.32
2022-11-02T23:59:40.746Z,3.92
